Time;durP1;ratioP1;P1;durP2;ratioP2;P2;SDS_P1;SDS_P2;PMS_P1;PMS_P2;Temp;Humidity;BMP_temperature;BMP_pressure;BME280_temperature;BME280_humidity;BME280_pressure;Samples;Min_cycle;Max_cycle;Signal;HPM_P1;HPM_P2
2021/06/13 00:02:20;;;;;;;7.65;5.80;;;;;;;16.07;74.12;99469.91;4990518;28;20594;-68
2021/06/13 00:04:45;;;;;;;8.82;5.70;;;;;;;16.11;74.40;99471.97;4993565;28;20044;-69
2021/06/13 00:07:11;;;;;;;9.15;5.80;;;;;;;15.99;74.64;99469.13;4993407;28;20026;-68
2021/06/13 00:09:36;;;;;;;9.68;6.20;;;;;;;15.93;75.26;99482.84;4993490;28;20030;-68
2021/06/13 00:12:02;;;;;;;8.23;6.10;;;;;;;15.91;75.32;99484.94;4990334;28;20030;-69
2021/06/13 00:14:27;;;;;;;10.45;6.32;;;;;;;15.69;75.71;99468.94;4993408;28;20038;-69
2021/06/13 00:16:52;;;;;;;8.80;6.43;;;;;;;15.71;76.23;99482.34;4994713;28;20018;-68
2021/06/13 00:19:18;;;;;;;9.30;6.13;;;;;;;15.60;76.37;99483.00;4994104;28;20037;-69
2021/06/13 00:21:43;;;;;;;8.15;5.57;;;;;;;15.54;76.99;99490.19;4994283;28;20057;-69
2021/06/13 00:24:09;;;;;;;9.85;6.70;;;;;;;15.42;77.53;99489.19;4993039;28;20038;-68
2021/06/13 00:26:36;;;;;;;11.10;6.85;;;;;;;15.37;77.48;99492.56;4993164;28;20081;-68
2021/06/13 00:29:01;;;;;;;13.60;6.63;;;;;;;15.22;78.12;99492.88;4994032;28;20027;-68
2021/06/13 00:31:27;;;;;;;9.80;7.05;;;;;;;15.09;78.85;99479.28;4994067;28;20108;-68
2021/06/13 00:33:52;;;;;;;9.18;6.55;;;;;;;15.13;78.16;99488.69;4993831;28;20671;-69
2021/06/13 00:36:19;;;;;;;13.05;8.00;;;;;;;15.13;78.36;99483.25;4974211;28;20547;-68
2021/06/13 00:38:44;;;;;;;10.57;7.30;;;;;;;15.09;78.16;99499.22;4976366;28;20075;-68
2021/06/13 00:41:10;;;;;;;12.13;7.00;;;;;;;15.07;77.90;99500.47;4995684;28;20029;-68
2021/06/13 00:43:36;;;;;;;10.68;6.93;;;;;;;14.94;77.84;99481.47;4993195;28;20045;-68
2021/06/13 00:46:02;;;;;;;8.40;6.50;;;;;;;15.13;77.59;99500.44;4994029;28;20496;-68
2021/06/13 00:48:27;;;;;;;10.40;6.22;;;;;;;15.05;78.45;99495.22;4993346;28;20373;-69
2021/06/13 00:50:54;;;;;;;8.43;6.15;;;;;;;14.76;79.55;99501.19;4993769;28;20048;-69
2021/06/13 00:53:20;;;;;;;8.70;6.18;;;;;;;14.63;80.44;99502.91;4991786;28;20096;-68
2021/06/13 00:55:47;;;;;;;9.27;6.78;;;;;;;14.54;80.97;99498.75;4993073;28;20111;-69
2021/06/13 00:58:12;;;;;;;10.15;5.78;;;;;;;14.39;81.54;99498.94;4993554;28;20037;-68
2021/06/13 01:00:39;;;;;;;11.90;7.00;;;;;;;14.39;81.79;99498.09;4993419;28;20022;-69
2021/06/13 01:03:06;;;;;;;9.90;6.95;;;;;;;14.50;81.55;99510.22;4993844;28;20092;-68
2021/06/13 01:05:32;;;;;;;10.73;7.57;;;;;;;14.44;81.40;99506.47;4993088;28;20491;-68
2021/06/13 01:08:12;;;;;;;9.98;7.22;;;;;;;14.40;81.75;99503.31;4993272;28;20056;-68
2021/06/13 01:10:46;;;;;;;8.43;6.30;;;;;;;14.24;81.76;99507.31;4992651;28;20500;-68
2021/06/13 01:13:12;;;;;;;11.85;6.85;;;;;;;14.27;82.27;99499.78;4993471;28;20059;-68
2021/06/13 01:15:43;;;;;;;11.30;7.70;;;;;;;14.07;82.82;99491.59;4993080;28;20033;-68
2021/06/13 01:18:36;;;;;;;8.73;6.03;;;;;;;14.08;82.20;99499.56;4992394;28;20026;-68
2021/06/13 01:21:13;;;;;;;10.55;6.80;;;;;;;14.09;82.96;99501.22;4993234;28;20438;-69
2021/06/13 01:24:06;;;;;;;11.60;7.43;;;;;;;14.20;83.36;99503.34;4992101;28;20029;-68
2021/06/13 01:26:55;;;;;;;10.80;6.88;;;;;;;14.43;82.10;99508.34;4992222;28;20035;-68
2021/06/13 01:29:28;;;;;;;13.35;6.72;;;;;;;14.34;81.96;99515.06;4993505;28;20431;-68
2021/06/13 01:31:56;;;;;;;11.07;6.50;;;;;;;14.28;82.21;99515.03;4992953;28;20117;-68
2021/06/13 01:34:30;;;;;;;11.48;7.38;;;;;;;14.14;82.61;99512.31;4992700;28;20026;-68
2021/06/13 01:36:58;;;;;;;9.60;6.93;;;;;;;13.93;83.75;99512.53;4990569;28;20392;-68
2021/06/13 01:39:27;;;;;;;13.07;7.38;;;;;;;13.66;84.43;99476.31;4992004;28;20030;-68
2021/06/13 01:41:57;;;;;;;12.80;7.18;;;;;;;13.69;85.17;99512.06;4991915;28;20080;-68
2021/06/13 01:44:24;;;;;;;11.82;7.45;;;;;;;13.56;85.45;99512.03;4988261;28;20040;-68
2021/06/13 01:46:51;;;;;;;13.30;7.75;;;;;;;13.40;86.44;99507.00;4992065;28;20049;-68
2021/06/13 01:49:18;;;;;;;9.40;7.30;;;;;;;13.29;86.87;99500.25;4991193;28;20535;-68
2021/06/13 01:51:44;;;;;;;11.63;7.88;;;;;;;13.27;87.67;99508.59;4991599;28;20084;-68
2021/06/13 01:54:10;;;;;;;12.25;7.97;;;;;;;13.13;87.46;99487.84;4992037;28;20435;-68
2021/06/13 01:56:37;;;;;;;9.98;7.47;;;;;;;13.44;86.98;99519.09;4991894;28;20436;-68
2021/06/13 01:59:04;;;;;;;9.68;7.03;;;;;;;13.27;86.92;99518.66;4991905;28;20030;-68
2021/06/13 02:01:31;;;;;;;9.63;6.88;;;;;;;13.29;86.96;99511.13;4992447;28;20058;-68
2021/06/13 02:04:00;;;;;;;12.68;7.85;;;;;;;13.21;87.50;99524.88;4991164;28;20069;-68
2021/06/13 02:06:29;;;;;;;11.20;7.38;;;;;;;13.04;87.70;99499.91;4992389;28;20026;-68
2021/06/13 02:08:55;;;;;;;10.27;7.47;;;;;;;13.06;87.77;99511.41;4992487;28;20053;-69
2021/06/13 02:11:21;;;;;;;11.52;7.63;;;;;;;13.00;88.57;99514.97;4992293;28;20030;-68
2021/06/13 02:13:47;;;;;;;10.57;7.20;;;;;;;12.88;88.27;99515.50;4990482;28;20091;-68
2021/06/13 02:16:14;;;;;;;10.20;7.25;;;;;;;12.83;88.65;99523.41;4992058;28;20044;-68
2021/06/13 02:18:42;;;;;;;10.85;7.32;;;;;;;12.90;88.58;99510.72;4991106;28;20520;-68
2021/06/13 02:21:09;;;;;;;12.07;7.45;;;;;;;12.73;88.35;99495.78;4992187;28;20428;-69
2021/06/13 02:23:37;;;;;;;11.45;7.53;;;;;;;12.76;88.25;99498.13;4991150;28;20026;-68
2021/06/13 02:26:02;;;;;;;9.70;6.95;;;;;;;12.75;88.49;99518.16;4991213;28;20034;-68
2021/06/13 02:28:32;;;;;;;14.13;7.88;;;;;;;12.80;88.62;99523.81;4992065;28;20022;-68
2021/06/13 02:30:58;;;;;;;9.90;6.28;;;;;;;12.82;88.12;99526.34;4991219;28;20113;-68
2021/06/13 02:33:24;;;;;;;12.27;7.50;;;;;;;12.82;88.84;99531.78;4990549;28;20491;-69
2021/06/13 02:35:53;;;;;;;11.85;7.15;;;;;;;12.91;87.60;99536.81;4986648;28;20728;-68
2021/06/13 02:38:19;;;;;;;13.07;6.78;;;;;;;12.80;88.17;99523.81;4993704;28;20024;-68
2021/06/13 02:40:46;;;;;;;11.32;6.85;;;;;;;12.70;88.27;99539.63;4995489;28;20086;-68
2021/06/13 02:43:11;;;;;;;11.88;8.00;;;;;;;12.54;88.48;99539.94;4994339;28;20031;-68
2021/06/13 02:45:37;;;;;;;9.40;7.10;;;;;;;12.33;88.33;99509.09;4995479;28;20084;-68
2021/06/13 02:48:03;;;;;;;12.52;7.57;;;;;;;12.41;89.33;99537.97;4995703;28;20030;-68
2021/06/13 02:50:28;;;;;;;14.60;6.85;;;;;;;12.35;89.56;99530.63;4996079;28;20065;-69
2021/06/13 02:53:25;;;;;;;15.18;8.15;;;;;;;12.34;90.20;99545.22;4995165;28;20064;-68
2021/06/13 02:56:10;;;;;;;10.70;7.43;;;;;;;12.25;89.17;99520.09;4995965;28;20042;-69
2021/06/13 02:58:45;;;;;;;12.25;7.35;;;;;;;12.26;88.73;99549.75;4994539;28;20029;-68
2021/06/13 03:01:18;;;;;;;11.25;7.88;;;;;;;12.31;90.00;99553.75;4995739;28;20403;-68
2021/06/13 03:03:44;;;;;;;16.48;7.85;;;;;;;12.23;89.10;99552.00;4995744;28;20041;-69
2021/06/13 03:06:14;;;;;;;13.07;7.10;;;;;;;12.17;89.99;99559.06;4995211;28;20026;-68
2021/06/13 03:08:40;;;;;;;13.68;7.90;;;;;;;12.12;90.18;99566.94;4995241;28;20096;-69
2021/06/13 03:11:07;;;;;;;11.63;6.85;;;;;;;11.94;90.54;99551.13;4994906;28;20444;-69
2021/06/13 03:13:33;;;;;;;12.32;8.20;;;;;;;11.68;90.63;99505.56;4995451;28;20582;-69
2021/06/13 03:16:00;;;;;;;12.45;6.50;;;;;;;11.97;90.23;99553.47;4995234;28;20105;-69
2021/06/13 03:18:28;;;;;;;11.15;7.60;;;;;;;12.04;90.65;99576.03;4995175;28;20077;-68
2021/06/13 03:20:54;;;;;;;12.77;7.25;;;;;;;11.99;90.79;99581.22;4995647;28;20057;-69
2021/06/13 03:23:21;;;;;;;13.93;7.05;;;;;;;11.70;90.67;99537.94;4995065;28;20484;-69
2021/06/13 03:25:49;;;;;;;10.13;7.55;;;;;;;11.98;91.16;99568.69;4994787;28;20034;-69
2021/06/13 03:28:17;;;;;;;15.50;8.05;;;;;;;11.98;90.57;99578.72;4995562;28;20097;-69
2021/06/13 03:30:42;;;;;;;10.77;7.80;;;;;;;11.81;90.54;99559.09;4994457;28;20447;-70
2021/06/13 03:33:08;;;;;;;11.55;7.30;;;;;;;11.71;90.52;99539.59;4993718;28;20030;-69
2021/06/13 03:35:34;;;;;;;9.55;7.22;;;;;;;11.93;90.58;99576.56;4994527;28;20109;-69
2021/06/13 03:38:01;;;;;;;13.15;7.90;;;;;;;11.91;89.66;99589.47;4994733;28;20412;-69
2021/06/13 03:40:28;;;;;;;9.90;7.13;;;;;;;12.01;90.00;99589.16;4986001;28;20065;-69
2021/06/13 03:42:55;;;;;;;12.27;7.07;;;;;;;11.91;89.35;99589.47;4987996;28;20087;-69
2021/06/13 03:45:23;;;;;;;12.60;7.75;;;;;;;11.83;89.75;99579.56;4994978;28;20089;-69
2021/06/13 03:47:50;;;;;;;12.05;7.18;;;;;;;11.88;90.10;99575.47;4994910;28;20042;-68
2021/06/13 03:50:17;;;;;;;12.50;7.13;;;;;;;11.87;89.92;99582.78;4992926;28;20030;-68
2021/06/13 03:52:42;;;;;;;15.23;7.20;;;;;;;11.86;89.48;99570.22;4993784;28;20093;-68
2021/06/13 03:55:09;;;;;;;13.27;7.97;;;;;;;12.03;89.54;99587.94;4991787;28;20053;-68
2021/06/13 03:57:35;;;;;;;12.30;6.80;;;;;;;12.15;89.06;99584.69;4993552;28;20052;-68
2021/06/13 04:00:01;;;;;;;15.25;7.00;;;;;;;12.18;88.82;99576.16;4994434;28;20026;-68
2021/06/13 04:02:27;;;;;;;16.52;7.03;;;;;;;12.20;88.31;99574.09;4995193;28;20023;-68
2021/06/13 04:04:54;;;;;;;17.13;7.10;;;;;;;12.35;88.17;99591.16;4993562;28;20499;-68
2021/06/13 04:07:21;;;;;;;13.45;7.15;;;;;;;12.42;87.13;99583.91;4993393;28;20038;-68
2021/06/13 04:09:46;;;;;;;9.52;6.95;;;;;;;12.40;87.14;99583.28;4994318;28;20026;-68
2021/06/13 04:12:17;;;;;;;9.30;6.28;;;;;;;12.42;87.08;99589.34;4994612;28;20659;-67
2021/06/13 04:14:47;;;;;;;15.77;6.82;;;;;;;12.43;87.45;99601.03;4993907;28;20032;-68
2021/06/13 04:17:23;;;;;;;13.30;7.28;;;;;;;12.43;87.45;99590.19;4994140;28;20053;-68
2021/06/13 04:19:49;;;;;;;10.55;7.13;;;;;;;12.38;86.80;99588.03;4993377;28;20485;-68
2021/06/13 04:22:17;;;;;;;15.30;7.40;;;;;;;12.52;86.97;99615.28;4994485;28;20037;-68
2021/06/13 04:24:45;;;;;;;10.63;6.25;;;;;;;12.58;86.48;99611.81;4993712;28;20037;-69
2021/06/13 04:27:12;;;;;;;10.75;7.13;;;;;;;12.67;85.86;99611.44;4993951;28;20065;-69
2021/06/13 04:29:37;;;;;;;19.73;6.85;;;;;;;12.69;86.05;99622.97;4992174;28;20030;-69
2021/06/13 04:32:03;;;;;;;12.68;6.47;;;;;;;12.76;85.52;99614.03;4994491;28;20034;-68
2021/06/13 04:34:28;;;;;;;9.65;6.05;;;;;;;12.83;85.71;99615.75;4994233;28;20034;-69
2021/06/13 04:36:54;;;;;;;9.85;6.45;;;;;;;12.92;85.16;99622.72;4993904;28;20030;-68
2021/06/13 04:39:19;;;;;;;13.52;6.47;;;;;;;12.90;85.12;99607.66;4994204;28;20038;-68
2021/06/13 04:41:44;;;;;;;11.68;6.30;;;;;;;13.06;85.13;99622.81;4993498;28;20041;-68
2021/06/13 04:44:10;;;;;;;9.18;6.43;;;;;;;13.21;85.03;99618.09;4992898;28;20041;-68
2021/06/13 04:46:35;;;;;;;11.55;6.43;;;;;;;13.32;84.54;99631.13;4994374;28;20034;-68
2021/06/13 04:49:00;;;;;;;10.55;6.22;;;;;;;13.33;83.87;99589.31;4993756;28;20624;-69
2021/06/13 04:51:27;;;;;;;10.90;6.07;;;;;;;13.68;83.15;99626.50;4992787;28;20026;-68
2021/06/13 04:53:58;;;;;;;8.82;6.10;;;;;;;13.84;82.57;99625.31;4994126;28;20476;-67
2021/06/13 04:56:23;;;;;;;11.00;6.40;;;;;;;13.98;82.33;99629.72;4983608;28;20039;-67
2021/06/13 04:58:49;;;;;;;9.02;6.60;;;;;;;14.08;81.66;99629.34;4993478;28;20048;-68
2021/06/13 05:01:14;;;;;;;9.43;6.22;;;;;;;14.10;81.95;99629.97;4992277;28;20026;-68
2021/06/13 05:03:43;;;;;;;10.73;6.50;;;;;;;14.05;81.05;99613.44;4993920;28;20113;-68
2021/06/13 05:06:08;;;;;;;10.10;6.32;;;;;;;14.31;80.66;99634.41;4993726;28;20033;-68
2021/06/13 05:08:33;;;;;;;9.95;6.13;;;;;;;14.44;80.77;99637.97;4993164;28;20038;-68
2021/06/13 05:10:59;;;;;;;9.88;5.85;;;;;;;14.65;80.08;99636.97;4993346;28;20033;-68
2021/06/13 05:13:24;;;;;;;11.35;5.90;;;;;;;14.82;80.24;99639.28;4993509;28;20022;-68
2021/06/13 05:15:49;;;;;;;12.20;6.15;;;;;;;14.97;79.45;99642.63;4993692;28;20096;-68
2021/06/13 05:18:15;;;;;;;8.98;6.28;;;;;;;15.13;78.47;99636.72;4992433;28;20022;-68
2021/06/13 05:20:41;;;;;;;8.95;5.85;;;;;;;15.30;77.43;99636.25;4993473;28;20040;-68
2021/06/13 05:23:06;;;;;;;15.25;5.88;;;;;;;15.47;76.46;99636.66;4992365;28;20030;-68
2021/06/13 05:25:34;;;;;;;9.02;5.50;;;;;;;15.72;76.43;99636.81;4991440;28;20054;-68
2021/06/13 05:28:02;;;;;;;7.38;5.43;;;;;;;15.95;75.68;99650.72;4992637;28;20073;-68
2021/06/13 05:30:29;;;;;;;10.02;5.18;;;;;;;16.17;75.17;99647.69;4993405;28;20439;-68
2021/06/13 05:32:55;;;;;;;9.10;5.78;;;;;;;16.18;74.86;99630.25;4991465;28;20476;-68
2021/06/13 05:35:21;;;;;;;8.95;5.65;;;;;;;16.49;74.03;99644.97;4992022;28;20098;-68
2021/06/13 05:37:47;;;;;;;7.57;5.22;;;;;;;16.64;73.97;99651.78;4984126;28;20030;-68
2021/06/13 05:40:13;;;;;;;11.13;5.63;;;;;;;16.71;73.66;99634.47;4993085;28;20052;-68
2021/06/13 05:42:39;;;;;;;13.60;5.55;;;;;;;16.90;72.81;99638.13;4993773;28;20073;-68
2021/06/13 05:45:06;;;;;;;7.35;4.60;;;;;;;17.15;71.93;99660.81;4992803;28;20034;-68
2021/06/13 05:47:32;;;;;;;7.78;5.22;;;;;;;17.36;71.41;99664.19;4975618;28;20084;-68
2021/06/13 05:49:57;;;;;;;9.52;4.78;;;;;;;17.60;71.08;99659.72;4990584;28;20054;-77
2021/06/13 05:52:23;;;;;;;7.93;5.28;;;;;;;17.66;70.15;99656.91;4994844;28;20108;-79
2021/06/13 05:54:48;;;;;;;7.25;4.60;;;;;;;17.86;66.48;99664.06;4988343;28;20040;-69
2021/06/13 05:57:13;;;;;;;7.22;4.45;;;;;;;18.01;66.01;99645.34;4989759;28;20022;-70
2021/06/13 05:59:39;;;;;;;7.97;4.38;;;;;;;18.22;64.92;99657.69;4992682;28;20488;-69
2021/06/13 06:02:04;;;;;;;12.25;3.92;;;;;;;18.33;63.64;99642.34;4991645;28;20500;-70
2021/06/13 06:04:29;;;;;;;7.80;4.15;;;;;;;18.67;63.80;99670.09;4991181;28;20069;-69
2021/06/13 06:06:55;;;;;;;7.28;3.85;;;;;;;18.79;63.10;99668.25;4991032;28;20567;-70
2021/06/13 06:09:20;;;;;;;8.20;3.53;;;;;;;18.92;63.02;99657.06;4997745;28;20101;-70
2021/06/13 06:11:45;;;;;;;5.70;3.40;;;;;;;19.13;61.03;99669.34;4990923;28;20381;-69
2021/06/13 06:14:11;;;;;;;6.90;3.67;;;;;;;19.15;61.06;99672.69;4993273;28;20026;-70
2021/06/13 06:16:38;;;;;;;5.80;3.00;;;;;;;19.33;60.45;99666.22;4993666;28;20092;-68
2021/06/13 06:19:03;;;;;;;7.47;3.65;;;;;;;19.15;60.81;99628.81;4992328;28;20022;-68
2021/06/13 06:21:29;;;;;;;10.27;3.70;;;;;;;19.53;59.89;99678.75;4991810;28;20488;-69
2021/06/13 06:23:54;;;;;;;7.65;3.80;;;;;;;19.74;60.19;99686.41;4991409;28;20040;-68
2021/06/13 06:26:21;;;;;;;6.63;3.70;;;;;;;19.52;58.71;99657.84;4992609;28;20476;-67
2021/06/13 06:28:46;;;;;;;7.95;3.70;;;;;;;19.97;58.68;99682.75;4990630;28;20026;-65
2021/06/13 06:31:12;;;;;;;6.70;3.58;;;;;;;20.17;58.03;99679.56;4991776;28;20487;-66
2021/06/13 06:33:37;;;;;;;9.13;3.40;;;;;;;20.38;57.93;99675.28;4992262;28;20440;-68
2021/06/13 06:36:03;;;;;;;7.28;3.28;;;;;;;20.44;57.45;99685.31;4990629;28;20036;-69
2021/06/13 06:38:29;;;;;;;7.05;3.35;;;;;;;20.64;57.42;99690.38;4988115;28;20062;-69
2021/06/13 06:40:54;;;;;;;8.93;3.35;;;;;;;20.96;56.17;99690.69;4984323;28;20121;-67
2021/06/13 06:43:20;;;;;;;7.95;2.80;;;;;;;21.58;54.63;99697.13;4988543;28;20516;-68
2021/06/13 06:45:45;;;;;;;7.10;2.95;;;;;;;21.82;53.42;99687.56;4990756;28;20045;-71
2021/06/13 06:48:10;;;;;;;9.98;3.20;;;;;;;21.84;51.84;99677.09;5006884;28;20391;-72
2021/06/13 06:50:36;;;;;;;4.22;2.88;;;;;;;22.05;51.24;99694.72;4990973;28;20050;-71
2021/06/13 06:53:01;;;;;;;5.88;2.67;;;;;;;22.81;50.83;99691.16;4988795;28;20033;-70
2021/06/13 06:55:26;;;;;;;4.18;2.42;;;;;;;23.14;49.23;99692.84;4991227;28;20455;-70
2021/06/13 06:57:52;;;;;;;5.95;2.50;;;;;;;23.57;47.66;99701.97;4991673;28;20034;-77
2021/06/13 07:00:18;;;;;;;4.72;2.45;;;;;;;24.39;46.43;99687.69;4991077;28;20046;-69
2021/06/13 07:02:43;;;;;;;4.82;2.30;;;;;;;25.25;44.63;99689.75;4991925;28;20109;-71
2021/06/13 07:05:10;;;;;;;3.33;2.10;;;;;;;25.50;43.07;99711.06;4992005;28;20026;-67
2021/06/13 07:07:35;;;;;;;4.70;2.00;;;;;;;26.94;41.25;99704.88;4992225;28;20030;-66
2021/06/13 07:10:00;;;;;;;5.97;1.70;;;;;;;28.91;38.27;99687.31;4990921;28;20564;-67
2021/06/13 07:12:26;;;;;;;5.75;2.20;;;;;;;29.33;35.41;99700.25;4991384;28;20038;-66
2021/06/13 07:14:52;;;;;;;7.22;2.05;;;;;;;29.69;35.30;99699.63;4990457;28;20022;-67
2021/06/13 07:17:17;;;;;;;4.03;2.10;;;;;;;30.66;34.15;99689.22;4991264;28;20050;-67
2021/06/13 07:19:43;;;;;;;4.18;2.17;;;;;;;30.55;32.69;99683.03;4980220;28;20058;-67
2021/06/13 07:22:08;;;;;;;3.15;1.80;;;;;;;31.17;32.49;99685.16;4990814;28;20126;-72
2021/06/13 07:24:33;;;;;;;5.00;1.90;;;;;;;32.24;31.08;99683.38;4986221;28;20026;-73
2021/06/13 07:26:59;;;;;;;3.47;1.45;;;;;;;32.81;30.62;99691.69;4995506;28;20117;-74
2021/06/13 07:29:24;;;;;;;3.25;1.52;;;;;;;32.80;29.55;99690.03;4995755;28;20472;-75
2021/06/13 07:31:50;;;;;;;5.35;1.65;;;;;;;33.24;29.63;99710.47;4995311;28;20030;-71
2021/06/13 07:34:16;;;;;;;2.85;1.30;;;;;;;34.63;28.45;99700.66;4995266;28;20170;-70
2021/06/13 07:36:41;;;;;;;3.47;1.48;;;;;;;34.59;28.25;99708.94;4994349;28;20472;-66
2021/06/13 07:39:07;;;;;;;4.00;1.45;;;;;;;34.64;27.87;99720.00;4994673;28;20049;-65
2021/06/13 07:41:32;;;;;;;5.28;1.50;;;;;;;34.95;26.83;99710.28;4995497;28;20030;-65
2021/06/13 07:43:58;;;;;;;3.25;1.45;;;;;;;34.94;27.00;99697.41;4993636;28;20061;-63
2021/06/13 07:46:23;;;;;;;5.13;1.70;;;;;;;34.86;26.97;99715.19;4989947;28;20025;-65
2021/06/13 07:48:48;;;;;;;4.55;1.77;;;;;;;34.33;26.33;99717.53;4993036;28;20034;-66
2021/06/13 07:51:14;;;;;;;4.97;1.60;;;;;;;34.16;27.66;99721.25;4995022;28;20088;-66
2021/06/13 07:53:43;;;;;;;5.78;1.80;;;;;;;33.75;27.79;99725.56;4995222;28;20584;-67
2021/06/13 07:56:09;;;;;;;3.67;1.50;;;;;;;34.29;27.51;99721.34;4992516;28;20034;-70
2021/06/13 07:58:34;;;;;;;4.57;1.50;;;;;;;34.16;27.44;99701.59;4989005;28;20105;-74
2021/06/13 08:01:00;;;;;;;4.90;1.52;;;;;;;35.00;26.77;99703.63;4993193;28;20117;-69
2021/06/13 08:03:25;;;;;;;3.65;1.50;;;;;;;34.28;27.20;99726.16;4992410;28;20177;-71
2021/06/13 08:05:50;;;;;;;5.07;1.50;;;;;;;34.96;26.46;99717.56;4992788;28;20388;-71
2021/06/13 08:08:15;;;;;;;4.57;1.30;;;;;;;35.36;25.88;99728.31;4993950;28;20364;-70
2021/06/13 08:10:41;;;;;;;3.30;1.47;;;;;;;35.63;25.47;99726.88;4995277;28;20273;-66
2021/06/13 08:13:06;;;;;;;3.17;1.60;;;;;;;35.58;26.09;99731.91;4992971;28;20859;-65
2021/06/13 08:15:32;;;;;;;3.08;1.65;;;;;;;35.29;26.00;99736.47;4993863;28;20472;-67
2021/06/13 08:17:58;;;;;;;6.82;1.58;;;;;;;35.24;26.25;99719.81;4994129;28;20029;-71
2021/06/13 08:20:24;;;;;;;4.50;1.75;;;;;;;35.54;24.55;99724.13;4994197;28;20447;-75
2021/06/13 08:22:49;;;;;;;4.90;1.58;;;;;;;35.07;26.35;99730.06;4992792;28;20496;-73
2021/06/13 08:25:16;;;;;;;5.22;1.55;;;;;;;34.12;26.72;99725.91;4995140;28;20034;-72
2021/06/13 08:27:42;;;;;;;7.90;2.13;;;;;;;35.15;26.33;99707.84;4994143;28;20639;-73
2021/06/13 08:30:10;;;;;;;5.90;1.70;;;;;;;35.23;25.76;99704.13;4995759;28;20121;-75
2021/06/13 08:32:36;;;;;;;;;;;;;;;33.87;27.70;99718.41;4989757;28;20030;-72
2021/06/13 08:35:02;;;;;;;4.13;1.70;;;;;;;34.73;27.55;99707.84;4991355;28;19913;-72
2021/06/13 08:37:27;;;;;;;6.03;1.90;;;;;;;35.80;25.12;99696.88;4990309;28;20022;-76
2021/06/13 08:39:53;;;;;;;7.15;1.75;;;;;;;36.16;25.98;99701.72;4994377;28;20022;-68
2021/06/13 08:42:19;;;;;;;3.58;1.58;;;;;;;37.20;24.81;99702.06;4985962;28;20026;-72
2021/06/13 08:44:45;;;;;;;4.43;1.70;;;;;;;34.21;25.99;99709.81;4991020;28;20030;-70
2021/06/13 08:47:16;;;;;;;7.22;1.50;;;;;;;34.57;26.68;99710.44;4988655;28;20030;-70
2021/06/13 08:49:41;;;;;;;11.05;1.80;;;;;;;35.98;26.58;99706.75;4992646;28;20053;-71
2021/06/13 08:52:09;;;;;;;4.78;2.42;;;;;;;37.14;24.29;99718.41;4993787;28;20496;-70
2021/06/13 08:54:34;;;;;;;5.47;1.65;;;;;;;34.72;26.24;99706.22;4993882;28;20108;-70
2021/06/13 08:56:59;;;;;;;5.03;1.92;;;;;;;29.86;32.39;99724.13;4984010;28;20110;-72
2021/06/13 08:59:25;;;;;;;4.70;1.92;;;;;;;27.66;35.39;99730.09;4992890;28;20034;-73
2021/06/13 09:01:50;;;;;;;5.10;1.83;;;;;;;28.91;34.63;99726.31;4990766;28;20039;-65
2021/06/13 09:04:15;;;;;;;2.92;1.65;;;;;;;32.10;31.49;99714.31;4992415;28;20037;-65
2021/06/13 09:06:40;;;;;;;3.08;1.77;;;;;;;33.83;28.01;99710.66;4991812;28;20030;-66
2021/06/13 09:09:17;;;;;;;6.57;2.00;;;;;;;33.47;27.75;99697.06;4992135;28;20111;-66
2021/06/13 09:12:04;;;;;;;4.47;1.73;;;;;;;34.21;27.96;99684.53;4989785;28;20504;-66
2021/06/13 09:14:37;;;;;;;3.60;1.50;;;;;;;35.32;26.58;99707.66;4989830;28;20547;-66
2021/06/13 09:17:32;;;;;;;4.97;1.42;;;;;;;35.98;25.92;99701.91;4988967;28;20165;-65
2021/06/13 09:20:21;;;;;;;3.35;1.52;;;;;;;36.12;24.81;99709.22;4985647;28;20042;-64
2021/06/13 09:23:21;;;;;;;2.38;1.30;;;;;;;36.53;24.14;99699.66;4989891;28;20061;-64
2021/06/13 09:25:55;;;;;;;5.20;1.75;;;;;;;34.32;25.77;99703.81;4948538;29;20166;-64
2021/06/13 09:28:22;;;;;;;3.38;1.25;;;;;;;35.44;24.82;99706.88;4981579;28;20599;-65
2021/06/13 09:30:51;;;;;;;4.55;1.45;;;;;;;35.93;24.78;99707.78;4987896;28;20034;-64
2021/06/13 09:33:20;;;;;;;3.28;1.17;;;;;;;35.46;26.11;99694.09;4988320;28;20038;-64
2021/06/13 09:35:46;;;;;;;;;;;;;;;36.25;24.94;99716.50;4990827;28;20034;-64
2021/06/13 09:38:29;;;;;;;5.00;1.17;;;;;;;36.73;24.03;99714.78;4988948;28;19917;-64
2021/06/13 09:41:14;;;;;;;6.45;1.48;;;;;;;37.27;23.26;99717.19;4989786;28;20161;-64
2021/06/13 09:43:52;;;;;;;2.65;1.35;;;;;;;36.27;24.66;99721.78;4982610;28;20037;-64
2021/06/13 09:46:21;;;;;;;6.53;1.50;;;;;;;36.13;25.05;99719.31;4985494;28;20492;-65
2021/06/13 09:48:49;;;;;;;2.65;1.23;;;;;;;36.51;25.07;99706.84;4988834;28;20362;-65
2021/06/13 09:51:18;;;;;;;;;;;;;;;36.09;25.31;99729.66;4990211;28;20034;-64
2021/06/13 09:53:45;;;;;;;2.70;1.30;;;;;;;36.50;26.03;99722.94;4989211;28;20406;-65
2021/06/13 09:56:25;;;;;;;3.42;1.35;;;;;;;34.88;25.68;99727.72;4989343;28;20121;-64
2021/06/13 09:58:59;;;;;;;3.45;1.10;;;;;;;36.16;24.68;99736.34;4987970;28;20049;-65
2021/06/13 10:01:29;;;;;;;3.88;1.63;;;;;;;35.87;24.62;99728.91;4989444;28;20026;-64
2021/06/13 10:03:55;;;;;;;3.88;1.40;;;;;;;36.12;24.76;99718.50;4989384;28;20029;-65
2021/06/13 10:06:21;;;;;;;3.42;1.30;;;;;;;35.61;25.69;99725.56;4989067;28;20038;-65
2021/06/13 10:08:48;;;;;;;4.55;1.60;;;;;;;35.31;26.12;99728.53;4989207;28;20104;-65
2021/06/13 10:11:15;;;;;;;4.32;1.60;;;;;;;36.25;24.14;99729.75;4988996;28;20157;-64
2021/06/13 10:13:45;;;;;;;3.60;1.35;;;;;;;35.12;26.11;99732.66;4988436;28;20484;-65
2021/06/13 10:16:31;;;;;;;3.83;1.40;;;;;;;35.34;25.96;99733.44;4987281;28;20034;-65
2021/06/13 10:19:01;;;;;;;5.22;1.65;;;;;;;36.07;25.54;99729.19;4988166;28;20049;-65
2021/06/13 10:21:34;;;;;;;4.57;1.60;;;;;;;35.77;25.54;99733.00;4987538;28;20353;-64
2021/06/13 10:24:00;;;;;;;4.47;1.30;;;;;;;36.45;24.17;99730.81;4989134;28;20045;-64
2021/06/13 10:26:25;;;;;;;3.30;1.85;;;;;;;35.55;24.17;99727.75;4989073;28;20030;-64
2021/06/13 10:28:51;;;;;;;3.42;1.60;;;;;;;35.26;24.87;99725.91;4989370;28;20045;-65
2021/06/13 10:31:16;;;;;;;2.65;1.40;;;;;;;34.89;24.43;99722.94;4987430;28;20101;-64
2021/06/13 10:33:42;;;;;;;4.53;1.38;;;;;;;35.51;22.93;99724.81;4986673;28;20030;-65
2021/06/13 10:36:08;;;;;;;2.50;1.30;;;;;;;34.37;24.00;99723.28;4987134;28;20026;-65
2021/06/13 10:38:35;;;;;;;4.38;1.20;;;;;;;34.79;24.07;99712.91;4988876;28;20026;-64
2021/06/13 10:41:00;;;;;;;3.40;0.98;;;;;;;36.14;22.85;99715.34;4988962;28;20409;-64
2021/06/13 10:43:29;;;;;;;2.58;0.80;;;;;;;35.10;23.33;99714.50;4988879;28;20034;-64
2021/06/13 10:46:36;;;;;;;3.92;1.20;;;;;;;34.29;26.95;99716.56;4987912;28;20034;-64
2021/06/13 10:49:02;;;;;;;3.93;1.10;;;;;;;35.75;24.62;99706.38;4959124;28;20031;-64
2021/06/13 10:51:33;;;;;;;1.83;0.80;;;;;;;35.92;22.67;99697.72;4967019;28;20075;-65
2021/06/13 10:54:25;;;;;;;3.03;1.10;;;;;;;35.72;21.79;99699.44;4968021;28;20386;-64
2021/06/13 10:57:12;;;;;;;4.43;1.00;;;;;;;35.00;23.79;99707.25;4988079;28;20030;-65
2021/06/13 10:59:40;;;;;;;4.38;1.30;;;;;;;35.14;23.73;99695.78;4975977;28;20113;-69
2021/06/13 11:02:27;;;;;;;3.88;0.85;;;;;;;35.38;23.68;99700.66;4989738;28;20026;-66
2021/06/13 11:05:02;;;;;;;3.58;1.30;;;;;;;35.38;23.36;99700.66;4989651;28;20184;-63
2021/06/13 11:07:27;;;;;;;2.47;1.00;;;;;;;35.57;23.85;99702.91;4992436;28;20084;-65
2021/06/13 11:13:04;;;;;;;3.13;1.00;;;;;;;34.87;23.87;99689.53;4990995;28;20068;-65
2021/06/13 11:15:32;;;;;;;2.65;1.17;;;;;;;34.96;23.45;99692.25;4981634;28;20033;-65
2021/06/13 11:18:16;;;;;;;3.50;1.20;;;;;;;34.04;24.09;99687.44;4992230;28;20022;-65
2021/06/13 11:20:50;;;;;;;2.25;1.15;;;;;;;33.12;24.63;99687.91;4994571;28;20026;-65
2021/06/13 11:23:21;;;;;;;3.67;0.95;;;;;;;34.36;25.61;99685.94;4992344;28;20084;-65
2021/06/13 11:25:47;;;;;;;2.95;0.93;;;;;;;35.81;24.39;99671.16;4994734;28;20022;-65
2021/06/13 11:28:22;;;;;;;2.72;1.08;;;;;;;35.64;24.23;99675.03;4994842;28;20472;-64
2021/06/13 11:31:13;;;;;;;3.42;1.30;;;;;;;35.07;24.10;99679.44;4993889;28;20058;-64
2021/06/13 11:33:55;;;;;;;2.85;1.15;;;;;;;35.50;24.12;99672.53;4995075;28;20022;-65
2021/06/13 11:36:23;;;;;;;2.28;1.00;;;;;;;35.39;24.26;99674.13;4995321;28;20030;-66
2021/06/13 11:38:51;;;;;;;2.28;1.00;;;;;;;36.32;23.84;99665.19;4995578;28;20042;-67
2021/06/13 11:41:44;;;;;;;2.42;1.08;;;;;;;36.41;22.38;99677.13;4992364;28;20030;-67